createdAt,value
2022-08-16T00:00:03.740Z,23.20
2022-08-16T00:02:33.277Z,23.27
2022-08-16T00:05:01.718Z,23.47
2022-08-16T00:07:30.182Z,23.28
2022-08-16T00:10:00.846Z,23.55
2022-08-16T00:12:31.901Z,23.45
2022-08-16T00:15:02.711Z,23.52
2022-08-16T00:17:56.069Z,23.47
2022-08-16T00:20:20.986Z,22.89
2022-08-16T00:22:51.834Z,22.52
2022-08-16T00:26:33.652Z,22.72
2022-08-16T00:28:12.202Z,22.93
2022-08-16T00:30:40.728Z,22.99
2022-08-16T00:33:10.152Z,23.17
2022-08-16T00:35:39.566Z,23.10
2022-08-16T00:38:40.205Z,22.99
2022-08-16T00:41:00.668Z,22.46
2022-08-16T00:43:42.914Z,22.28
2022-08-16T00:46:33.118Z,22.17
2022-08-16T00:49:04.770Z,21.76
2022-08-16T00:51:33.709Z,21.56
2022-08-16T00:54:02.595Z,21.56
2022-08-16T00:56:57.113Z,21.59
2022-08-16T00:59:27.529Z,21.49
2022-08-16T01:01:56.833Z,21.46
2022-08-16T01:04:30.825Z,21.25
2022-08-16T01:07:07.124Z,21.31
2022-08-16T01:09:42.782Z,21.60
2022-08-16T01:12:26.625Z,21.63
2022-08-16T01:14:57.962Z,21.63
2022-08-16T01:17:27.891Z,21.56
2022-08-16T01:20:11.665Z,21.56
2022-08-16T01:22:59.711Z,21.33
2022-08-16T01:25:36.435Z,21.16
2022-08-16T01:28:09.135Z,21.12
2022-08-16T01:30:49.775Z,21.32
2022-08-16T01:33:22.413Z,21.52
2022-08-16T01:35:56.499Z,21.76
2022-08-16T01:38:28.759Z,21.70
2022-08-16T01:41:03.597Z,21.88
2022-08-16T01:43:34.541Z,21.74
2022-08-16T01:46:29.563Z,21.80
2022-08-16T01:49:10.300Z,21.96
2022-08-16T01:51:40.832Z,21.84
2022-08-16T01:54:30.578Z,21.73
2022-08-16T01:57:02.266Z,21.36
2022-08-16T01:59:36.701Z,21.11
2022-08-16T02:02:27.025Z,20.95
2022-08-16T02:04:55.625Z,20.83
2022-08-16T02:07:27.147Z,20.88
2022-08-16T02:09:57.220Z,20.87
2022-08-16T02:12:49.589Z,20.94
2022-08-16T02:15:25.049Z,20.95
2022-08-16T02:17:54.966Z,20.95
2022-08-16T02:20:26.233Z,21.02
2022-08-16T02:23:01.814Z,21.04
2022-08-16T02:25:52.377Z,20.80
2022-08-16T02:28:26.209Z,21.02
2022-08-16T02:30:57.193Z,20.96
2022-08-16T02:33:42.867Z,21.06
2022-08-16T02:36:48.138Z,21.08
2022-08-16T02:39:14.855Z,21.01
2022-08-16T02:41:45.649Z,20.85
2022-08-16T02:44:26.835Z,20.46
2022-08-16T02:46:57.641Z,20.76
2022-08-16T02:49:57.974Z,20.40
2022-08-16T02:52:24.856Z,20.57
2022-08-16T02:55:01.212Z,20.70
2022-08-16T02:57:31.167Z,20.46
2022-08-16T03:00:01.378Z,20.44
2022-08-16T03:02:55.788Z,20.40
2022-08-16T03:05:26.517Z,20.51
2022-08-16T03:08:00.230Z,20.64
2022-08-16T03:10:33.526Z,20.70
2022-08-16T03:13:04.197Z,20.64
2022-08-16T03:15:42.364Z,20.39
2022-08-16T03:18:12.665Z,19.96
2022-08-16T03:20:55.785Z,19.79
2022-08-16T03:23:24.819Z,19.79
2022-08-16T03:25:53.897Z,19.82
2022-08-16T03:28:21.995Z,19.85
2022-08-16T03:30:52.332Z,19.30
2022-08-16T03:33:23.939Z,19.23
2022-08-16T03:35:59.401Z,18.98
2022-08-16T03:38:49.250Z,19.24
2022-08-16T03:41:25.194Z,19.37
2022-08-16T03:43:59.856Z,19.41
2022-08-16T03:46:47.826Z,19.46
2022-08-16T03:49:22.595Z,19.43
2022-08-16T03:51:54.522Z,19.60
2022-08-16T03:54:28.467Z,19.50
2022-08-16T03:56:58.650Z,19.38
2022-08-16T03:59:32.395Z,19.46
2022-08-16T04:02:12.078Z,19.85
2022-08-16T04:04:51.073Z,20.08
2022-08-16T04:07:22.203Z,19.99
2022-08-16T04:09:53.546Z,19.74
2022-08-16T04:12:54.693Z,19.47
2022-08-16T04:15:16.979Z,19.41
2022-08-16T04:18:02.637Z,19.51
2022-08-16T04:20:36.781Z,19.50
2022-08-16T04:23:09.194Z,19.70
2022-08-16T04:25:41.061Z,19.70
2022-08-16T04:28:54.472Z,19.75
2022-08-16T04:30:59.921Z,19.91
2022-08-16T04:33:30.314Z,20.02
2022-08-16T04:36:03.906Z,20.02
2022-08-16T04:38:33.289Z,19.99
2022-08-16T04:41:01.450Z,20.13
2022-08-16T04:43:31.333Z,20.19
2022-08-16T04:46:03.067Z,20.20
2022-08-16T04:48:38.633Z,20.19
2022-08-16T04:51:12.738Z,20.12
2022-08-16T04:53:46.581Z,20.09
2022-08-16T04:56:17.001Z,19.99
2022-08-16T04:58:46.843Z,19.92
2022-08-16T05:01:19.887Z,19.89
2022-08-16T05:04:00.336Z,19.72
2022-08-16T05:06:44.928Z,19.96
2022-08-16T05:09:24.788Z,19.79
2022-08-16T05:11:57.841Z,19.64
2022-08-16T05:14:45.809Z,19.84
2022-08-16T05:17:19.889Z,20.09
2022-08-16T05:19:57.472Z,20.28
2022-08-16T05:22:35.833Z,20.30
2022-08-16T05:25:09.039Z,20.22
2022-08-16T05:27:42.753Z,20.30
2022-08-16T05:30:34.935Z,20.34
2022-08-16T05:33:05.635Z,20.36
2022-08-16T05:35:39.031Z,20.41
2022-08-16T05:38:33.080Z,20.40
2022-08-16T05:41:09.491Z,20.46
2022-08-16T05:43:42.897Z,20.43
2022-08-16T05:46:29.056Z,20.53
2022-08-16T05:49:05.928Z,20.53
2022-08-16T05:51:41.781Z,20.58
2022-08-16T05:54:17.365Z,20.63
2022-08-16T05:56:56.000Z,20.60
2022-08-16T05:59:26.932Z,20.77
2022-08-16T06:01:57.305Z,20.88
2022-08-16T06:04:36.044Z,20.95
2022-08-16T06:07:24.276Z,21.08
2022-08-16T06:10:33.129Z,21.08
2022-08-16T06:13:04.959Z,21.02
2022-08-16T06:15:34.550Z,20.92
2022-08-16T06:18:04.843Z,20.90
2022-08-16T06:20:35.048Z,20.90
2022-08-16T06:23:17.636Z,21.04
2022-08-16T06:25:58.974Z,21.21
2022-08-16T06:28:35.905Z,21.26
2022-08-16T06:31:12.032Z,21.26
2022-08-16T06:33:44.652Z,21.39
2022-08-16T06:36:16.603Z,21.57
2022-08-16T06:38:56.985Z,21.62
2022-08-16T06:41:54.111Z,21.73
2022-08-16T06:44:51.677Z,21.87
2022-08-16T06:47:53.906Z,21.87
2022-08-16T06:50:28.529Z,21.93
2022-08-16T06:53:06.697Z,22.04
2022-08-16T06:55:40.322Z,22.11
2022-08-16T06:58:22.174Z,22.19
2022-08-16T07:01:00.110Z,22.34
2022-08-16T07:03:32.258Z,22.34
2022-08-16T07:06:04.262Z,22.35
2022-08-16T07:08:42.507Z,22.34
2022-08-16T07:11:12.676Z,22.48
2022-08-16T07:14:00.680Z,22.53
2022-08-16T07:16:42.086Z,22.63
2022-08-16T07:19:16.855Z,22.67
2022-08-16T07:21:59.390Z,22.72
2022-08-16T07:24:31.116Z,22.87
2022-08-16T07:27:08.397Z,23.24
2022-08-16T07:29:40.250Z,23.70
2022-08-16T07:32:11.834Z,24.21
2022-08-16T07:34:48.401Z,24.64
2022-08-16T07:37:19.005Z,25.26
2022-08-16T07:40:13.198Z,25.50
2022-08-16T07:42:46.693Z,25.75
2022-08-16T07:45:16.973Z,25.88
2022-08-16T07:47:51.162Z,25.99
2022-08-16T07:50:56.999Z,26.15
2022-08-16T07:53:09.963Z,26.49
2022-08-16T07:55:47.820Z,26.74
2022-08-16T07:58:34.444Z,26.80
2022-08-16T08:01:10.477Z,26.99
2022-08-16T08:03:48.896Z,26.87
2022-08-16T08:06:24.996Z,26.73
2022-08-16T08:08:57.179Z,27.15
2022-08-16T08:11:28.753Z,27.41
2022-08-16T08:14:03.213Z,27.52
2022-08-16T08:16:35.711Z,27.39
2022-08-16T08:19:12.499Z,27.47
2022-08-16T08:22:00.585Z,27.49
2022-08-16T08:24:46.881Z,27.79
2022-08-16T08:27:23.226Z,27.93
2022-08-16T08:30:49.430Z,27.98
2022-08-16T08:32:58.045Z,28.21
2022-08-16T08:35:34.428Z,28.24
2022-08-16T08:38:06.283Z,28.49
2022-08-16T08:40:35.762Z,28.59
2022-08-16T08:43:11.675Z,28.41
2022-08-16T08:45:49.310Z,28.53
2022-08-16T08:48:34.652Z,28.74
2022-08-16T08:51:11.291Z,28.79
2022-08-16T08:54:09.709Z,28.77
2022-08-16T08:56:45.769Z,29.11
2022-08-16T08:59:28.145Z,29.44
2022-08-16T09:01:59.726Z,29.63
2022-08-16T09:04:32.652Z,29.59
2022-08-16T09:07:04.634Z,29.55
2022-08-16T09:09:37.801Z,29.42
2022-08-16T09:12:35.718Z,29.65
2022-08-16T09:15:23.867Z,29.89
2022-08-16T09:17:56.970Z,30.23
2022-08-16T09:20:30.260Z,30.20
2022-08-16T09:22:59.457Z,30.17
2022-08-16T09:25:34.184Z,30.13
2022-08-16T09:28:10.647Z,29.90
2022-08-16T09:30:53.520Z,29.97
2022-08-16T09:33:23.209Z,30.41
2022-08-16T09:35:53.326Z,30.67
2022-08-16T09:38:32.217Z,30.98
2022-08-16T09:41:02.129Z,31.03
2022-08-16T09:43:58.193Z,31.22
2022-08-16T09:46:44.418Z,31.26
2022-08-16T09:49:12.579Z,31.34
2022-08-16T09:51:41.092Z,31.46
2022-08-16T09:54:16.757Z,31.46
2022-08-16T09:56:51.364Z,31.61
2022-08-16T09:59:23.337Z,31.78
2022-08-16T10:01:54.665Z,31.89
2022-08-16T10:04:30.310Z,31.95
2022-08-16T10:07:15.575Z,32.20
2022-08-16T10:09:54.969Z,32.18
2022-08-16T10:12:45.375Z,32.20
2022-08-16T10:15:17.103Z,31.65
2022-08-16T10:18:00.186Z,32.09
2022-08-16T10:20:34.873Z,32.22
2022-08-16T10:23:07.962Z,32.41
2022-08-16T10:27:18.753Z,32.66
2022-08-16T10:28:32.178Z,32.44
2022-08-16T10:31:06.683Z,32.66
2022-08-16T10:33:40.288Z,32.55
2022-08-16T10:36:12.465Z,32.60
2022-08-16T10:39:00.687Z,33.15
2022-08-16T10:41:29.056Z,32.92
2022-08-16T10:43:58.460Z,33.08
2022-08-16T10:46:40.041Z,33.10
2022-08-16T10:49:11.563Z,33.33
2022-08-16T10:52:01.660Z,33.36
2022-08-16T10:54:30.570Z,33.17
2022-08-16T10:56:59.594Z,33.73
2022-08-16T10:59:38.139Z,34.03
2022-08-16T11:03:00.775Z,34.21
2022-08-16T11:05:09.578Z,34.56
2022-08-16T11:07:43.802Z,34.47
2022-08-16T11:10:20.470Z,34.45
2022-08-16T11:12:52.756Z,34.69
2022-08-16T11:15:21.737Z,34.27
2022-08-16T11:20:48.794Z,34.89
2022-08-16T11:23:20.027Z,33.97
2022-08-16T11:26:20.667Z,33.63
2022-08-16T11:29:12.649Z,33.86
2022-08-16T11:31:25.700Z,33.81
2022-08-16T11:33:55.180Z,34.43
2022-08-16T11:36:27.966Z,34.48
2022-08-16T11:38:58.919Z,34.59
2022-08-16T11:41:29.489Z,34.73
2022-08-16T11:44:02.045Z,34.83
2022-08-16T11:46:44.794Z,33.98
2022-08-16T11:49:14.885Z,34.24
2022-08-16T11:51:45.555Z,33.52
2022-08-16T11:54:21.757Z,33.68
2022-08-16T11:56:57.583Z,33.52
2022-08-16T11:59:31.115Z,33.38
2022-08-16T12:02:04.424Z,33.56
2022-08-16T12:04:52.080Z,33.45
2022-08-16T12:07:23.577Z,32.13
2022-08-16T12:09:54.223Z,31.19
2022-08-16T12:12:28.523Z,31.00
2022-08-16T12:15:00.205Z,30.81
2022-08-16T12:17:31.975Z,30.81
2022-08-16T12:20:01.073Z,30.75
2022-08-16T12:22:30.072Z,30.68
2022-08-16T12:25:03.893Z,30.71
2022-08-16T12:27:33.167Z,30.43
2022-08-16T12:30:02.245Z,30.54
2022-08-16T12:32:38.207Z,30.49
2022-08-16T12:35:13.076Z,30.71
2022-08-16T12:37:42.337Z,30.55
2022-08-16T12:40:24.724Z,30.68
2022-08-16T12:42:58.566Z,30.34
2022-08-16T12:45:29.443Z,30.68
2022-08-16T12:48:32.578Z,30.30
2022-08-16T12:51:03.730Z,30.09
2022-08-16T12:53:34.422Z,30.02
2022-08-16T12:56:11.684Z,29.78
2022-08-16T12:58:50.549Z,29.73
2022-08-16T13:01:19.862Z,29.85
2022-08-16T13:04:08.247Z,29.90
2022-08-16T13:06:41.150Z,30.05
2022-08-16T13:09:26.465Z,30.20
2022-08-16T13:12:03.361Z,30.43
2022-08-16T13:14:34.737Z,30.51
2022-08-16T13:17:06.760Z,30.64
2022-08-16T13:20:03.796Z,31.25
2022-08-16T13:22:28.171Z,31.81
2022-08-16T13:24:56.400Z,32.20
2022-08-16T13:28:03.338Z,32.40
2022-08-16T13:30:36.600Z,32.64
2022-08-16T13:33:11.348Z,32.80
2022-08-16T13:35:42.730Z,32.83
2022-08-16T13:38:25.106Z,33.25
2022-08-16T13:40:55.863Z,33.36
2022-08-16T13:43:27.319Z,33.65
2022-08-16T13:45:56.396Z,33.63
2022-08-16T13:48:26.162Z,33.70
2022-08-16T13:50:55.125Z,33.96
2022-08-16T13:53:27.392Z,33.81
2022-08-16T13:55:59.244Z,33.58
2022-08-16T13:58:35.167Z,33.19
2022-08-16T14:01:04.518Z,32.86
2022-08-16T14:03:39.301Z,32.61
2022-08-16T14:06:10.915Z,32.60
2022-08-16T14:08:42.391Z,32.40
2022-08-16T14:11:12.701Z,32.73
2022-08-16T14:13:45.051Z,33.19
2022-08-16T14:16:24.617Z,32.66
2022-08-16T14:19:02.518Z,32.18
2022-08-16T14:21:35.471Z,31.50
2022-08-16T14:24:08.162Z,31.29
2022-08-16T14:26:51.210Z,31.25
2022-08-16T14:29:23.002Z,31.13
2022-08-16T14:31:53.842Z,31.19
2022-08-16T14:34:25.710Z,31.31
2022-08-16T14:36:57.543Z,30.82
2022-08-16T14:39:32.318Z,30.25
2022-08-16T14:42:12.161Z,30.07
2022-08-16T14:44:43.147Z,30.09
2022-08-16T14:47:12.028Z,30.44
2022-08-16T14:49:40.781Z,30.62
2022-08-16T14:52:13.109Z,30.57
2022-08-16T14:54:44.186Z,30.76
2022-08-16T14:57:14.080Z,30.49
2022-08-16T14:59:46.148Z,30.51
2022-08-16T15:02:17.008Z,30.64
2022-08-16T15:05:04.388Z,30.54
2022-08-16T15:07:35.125Z,30.05
2022-08-16T15:10:05.695Z,30.09
2022-08-16T15:12:36.386Z,30.00
2022-08-16T15:15:12.962Z,30.09
2022-08-16T15:17:55.998Z,29.96
2022-08-16T15:20:29.137Z,29.97
2022-08-16T15:23:01.001Z,29.96
2022-08-16T15:25:32.332Z,30.09
2022-08-16T15:28:04.770Z,30.31
2022-08-16T15:30:56.739Z,30.43
2022-08-16T15:33:27.014Z,30.54
2022-08-16T15:35:58.083Z,30.83
2022-08-16T15:38:56.783Z,30.88
2022-08-16T15:41:34.361Z,30.90
2022-08-16T15:44:10.263Z,31.04
2022-08-16T15:46:56.581Z,31.04
2022-08-16T15:49:37.961Z,31.04
2022-08-16T15:52:16.241Z,31.08
2022-08-16T15:54:53.588Z,31.04
2022-08-16T15:57:30.327Z,31.13
2022-08-16T16:00:14.547Z,31.25
2022-08-16T16:02:47.027Z,31.53
2022-08-16T16:05:19.648Z,31.68
2022-08-16T16:07:56.306Z,31.86
2022-08-16T16:10:39.418Z,31.82
2022-08-16T16:13:08.894Z,31.85
2022-08-16T16:15:40.145Z,31.85
2022-08-16T16:18:12.771Z,31.92
2022-08-16T16:20:43.854Z,31.96
2022-08-16T16:23:12.321Z,31.96
2022-08-16T16:25:43.843Z,31.98
2022-08-16T16:28:45.970Z,32.01
2022-08-16T16:31:02.342Z,31.99
2022-08-16T16:33:34.152Z,32.02
2022-08-16T16:36:06.858Z,31.94
2022-08-16T16:38:35.347Z,31.89
2022-08-16T16:41:09.290Z,31.91
2022-08-16T16:43:40.746Z,31.81
2022-08-16T16:46:32.806Z,31.74
2022-08-16T16:49:00.507Z,31.64
2022-08-16T16:51:32.246Z,31.67
2022-08-16T16:54:12.972Z,31.60
2022-08-16T16:56:49.709Z,31.55
2022-08-16T16:59:18.807Z,31.54
2022-08-16T17:01:59.168Z,31.41
2022-08-16T17:04:39.421Z,31.25
2022-08-16T17:07:12.458Z,31.22
2022-08-16T17:09:41.587Z,31.31
2022-08-16T17:12:18.798Z,31.17
2022-08-16T17:14:53.318Z,31.19
2022-08-16T17:17:21.883Z,31.16
2022-08-16T17:19:51.711Z,31.17
2022-08-16T17:22:22.027Z,31.00
2022-08-16T17:24:53.316Z,30.90
2022-08-16T17:27:33.104Z,30.83
2022-08-16T17:30:19.839Z,30.76
2022-08-16T17:32:54.640Z,30.69
2022-08-16T17:35:33.816Z,30.58
2022-08-16T17:38:04.919Z,30.35
2022-08-16T17:40:46.766Z,30.28
2022-08-16T17:43:19.344Z,30.24
2022-08-16T17:45:48.815Z,30.25
2022-08-16T17:48:17.104Z,30.06
2022-08-16T17:50:47.105Z,30.07
2022-08-16T17:53:17.509Z,30.07
2022-08-16T17:55:50.674Z,29.87
2022-08-16T17:58:23.492Z,29.68
2022-08-16T18:00:54.562Z,29.78
2022-08-16T18:04:02.441Z,29.61
2022-08-16T18:06:17.859Z,29.42
2022-08-16T18:08:49.036Z,29.30
2022-08-16T18:11:25.879Z,29.15
2022-08-16T18:13:55.593Z,29.04
2022-08-16T18:16:24.613Z,28.84
2022-08-16T18:18:52.885Z,28.48
2022-08-16T18:21:44.766Z,28.44
2022-08-16T18:24:16.225Z,28.22
2022-08-16T18:26:44.547Z,28.09
2022-08-16T18:29:13.863Z,28.15
2022-08-16T18:31:42.101Z,28.44
2022-08-16T18:34:10.875Z,28.57
2022-08-16T18:36:41.209Z,28.27
2022-08-16T18:39:10.417Z,28.35
2022-08-16T18:41:38.612Z,28.31
2022-08-16T18:44:26.132Z,27.91
2022-08-16T18:46:56.440Z,28.02
2022-08-16T18:49:24.793Z,28.21
2022-08-16T18:51:59.067Z,28.17
2022-08-16T18:54:28.260Z,27.41
2022-08-16T18:56:58.339Z,26.43
2022-08-16T18:59:33.208Z,26.37
2022-08-16T19:02:05.197Z,26.84
2022-08-16T19:04:56.877Z,27.06
2022-08-16T19:07:31.367Z,27.18
2022-08-16T19:10:01.388Z,27.21
2022-08-16T19:12:38.523Z,26.36
2022-08-16T19:15:15.942Z,26.37
2022-08-16T19:17:45.374Z,25.77
2022-08-16T19:20:19.156Z,25.71
2022-08-16T19:23:10.193Z,25.96
2022-08-16T19:25:47.988Z,26.32
2022-08-16T19:28:50.503Z,26.33
2022-08-16T19:31:12.517Z,25.78
2022-08-16T19:33:53.320Z,25.75
2022-08-16T19:36:31.021Z,25.74
2022-08-16T19:39:05.325Z,25.68
2022-08-16T19:41:35.353Z,25.60
2022-08-16T19:44:03.996Z,25.50
2022-08-16T19:46:32.371Z,25.40
2022-08-16T19:49:02.819Z,25.09
2022-08-16T19:51:31.404Z,24.83
2022-08-16T19:53:59.782Z,23.99
2022-08-16T19:56:29.577Z,24.25
2022-08-16T20:01:46.444Z,24.18
2022-08-16T20:04:14.834Z,24.48
2022-08-16T20:06:43.625Z,24.21
2022-08-16T20:09:15.421Z,24.44
2022-08-16T20:11:47.052Z,24.27
2022-08-16T20:14:24.345Z,23.89
2022-08-16T20:16:55.687Z,23.37
2022-08-16T20:19:24.249Z,23.41
2022-08-16T20:21:52.607Z,23.34
2022-08-16T20:24:36.797Z,23.44
2022-08-16T20:27:09.517Z,23.41
2022-08-16T20:29:39.042Z,23.07
2022-08-16T20:32:09.287Z,22.76
2022-08-16T20:34:37.651Z,22.48
2022-08-16T20:37:06.838Z,22.32
2022-08-16T20:39:35.354Z,22.42
2022-08-16T20:42:03.665Z,22.39
2022-08-16T20:44:37.212Z,22.34
2022-08-16T20:47:05.558Z,22.46
2022-08-16T20:49:33.949Z,22.60
2022-08-16T20:52:02.444Z,22.82
2022-08-16T20:54:30.958Z,23.00
2022-08-16T20:56:59.213Z,22.89
2022-08-16T20:59:27.786Z,23.10
2022-08-16T21:01:58.014Z,23.01
2022-08-16T21:04:28.780Z,23.03
2022-08-16T21:06:58.667Z,22.94
2022-08-16T21:09:28.884Z,23.17
2022-08-16T21:11:59.010Z,23.25
2022-08-16T21:14:27.532Z,23.24
2022-08-16T21:17:00.105Z,23.41
2022-08-16T21:19:28.767Z,22.92
2022-08-16T21:21:57.698Z,22.74
2022-08-16T21:24:26.433Z,22.73
2022-08-16T21:26:55.917Z,22.42
2022-08-16T21:29:39.866Z,21.83
2022-08-16T21:32:14.906Z,21.79
2022-08-16T21:34:43.795Z,21.50
2022-08-16T21:37:15.449Z,21.62
2022-08-16T21:39:44.614Z,21.66
2022-08-16T21:42:15.489Z,22.01
2022-08-16T21:44:43.762Z,21.84
2022-08-16T21:47:13.321Z,22.07
2022-08-16T21:49:41.367Z,21.83
2022-08-16T21:52:26.102Z,22.02
2022-08-16T21:54:56.952Z,21.45
2022-08-16T21:57:25.478Z,21.57
2022-08-16T21:59:55.354Z,21.66
2022-08-16T22:02:35.724Z,21.83
2022-08-16T22:05:07.768Z,21.67
2022-08-16T22:07:36.199Z,21.71
2022-08-16T22:11:04.406Z,21.64
2022-08-16T22:12:58.517Z,21.32
2022-08-16T22:15:27.543Z,21.26
2022-08-16T22:17:59.820Z,21.53
2022-08-16T22:20:29.699Z,21.38
2022-08-16T22:23:06.670Z,21.01
2022-08-16T22:25:37.643Z,21.16
2022-08-16T22:28:06.906Z,21.09
2022-08-16T22:30:35.199Z,21.14
2022-08-16T22:33:09.769Z,21.35
2022-08-16T22:35:42.816Z,21.21
2022-08-16T22:38:54.813Z,21.29
2022-08-16T22:41:00.463Z,21.33
2022-08-16T22:43:29.905Z,21.38
2022-08-16T22:45:58.234Z,21.25
2022-08-16T22:48:27.795Z,21.28
2022-08-16T22:50:56.192Z,21.29
2022-08-16T22:53:26.983Z,21.35
2022-08-16T22:55:57.234Z,21.26
2022-08-16T22:58:36.148Z,21.12
2022-08-16T23:01:05.909Z,20.85
2022-08-16T23:03:36.733Z,20.92
2022-08-16T23:06:05.791Z,20.60
2022-08-16T23:08:39.427Z,20.51
2022-08-16T23:11:10.562Z,20.43
2022-08-16T23:13:52.459Z,20.73
2022-08-16T23:16:32.411Z,20.91
2022-08-16T23:19:05.355Z,20.85
2022-08-16T23:21:35.058Z,20.77
2022-08-16T23:24:03.268Z,20.57
2022-08-16T23:26:46.135Z,20.47
2022-08-16T23:29:25.386Z,20.41
2022-08-16T23:31:56.663Z,20.43
2022-08-16T23:34:28.394Z,20.37
2022-08-16T23:36:59.230Z,20.22
2022-08-16T23:39:27.745Z,20.25
2022-08-16T23:41:56.033Z,20.26
2022-08-16T23:44:57.209Z,20.29
2022-08-16T23:47:12.692Z,20.28
2022-08-16T23:49:59.291Z,20.12
2022-08-16T23:52:42.320Z,19.98
2022-08-16T23:55:19.104Z,19.82
2022-08-16T23:57:47.515Z,19.43
